createdAt,value
2022-08-08T00:07:13.231Z,16.1
2022-08-08T00:17:23.110Z,15.9
2022-08-08T00:27:14.158Z,15.7
2022-08-08T00:37:16.414Z,15.5
2022-08-08T00:47:19.841Z,15.4
2022-08-08T01:07:16.354Z,15.1
2022-08-08T01:27:21.201Z,14.9
2022-08-08T01:37:21.741Z,14.8
2022-08-08T01:47:55.553Z,14.7
2022-08-08T01:57:18.851Z,14.5
2022-08-08T02:07:19.679Z,14.5
2022-08-08T02:17:20.836Z,14.4
2022-08-08T02:27:21.428Z,14.2
2022-08-08T02:37:51.731Z,14
2022-08-08T02:47:22.829Z,14
2022-08-08T03:07:23.746Z,13.7
2022-08-08T03:17:25.707Z,13.7
2022-08-08T03:27:27.031Z,13.7
2022-08-08T03:37:59.189Z,13.6
2022-08-08T03:47:27.798Z,13.5
2022-08-08T03:58:29.815Z,13.5
2022-08-08T04:07:27.648Z,13.4
2022-08-08T04:17:46.887Z,13.3
2022-08-08T04:27:43.306Z,13.3
2022-08-08T04:37:32.021Z,13.2
2022-08-08T04:47:30.091Z,13.5
2022-08-08T04:57:30.621Z,13.6
2022-08-08T05:07:35.333Z,13.9
2022-08-08T05:17:37.495Z,14.2
2022-08-08T05:27:32.954Z,14.4
2022-08-08T05:37:39.358Z,14.7
2022-08-08T05:58:04.707Z,15.3
2022-08-08T06:07:36.026Z,15.7
2022-08-08T06:17:50.663Z,16
2022-08-08T06:27:37.388Z,16.3
2022-08-08T06:37:37.841Z,17
2022-08-08T06:57:43.896Z,18
2022-08-08T07:07:40.214Z,18.3
2022-08-08T07:37:42.691Z,19.6
2022-08-08T07:47:43.558Z,19.8
2022-08-08T08:17:45.041Z,20.9
2022-08-08T08:47:46.611Z,21.6
2022-08-08T09:37:59.256Z,22.8
2022-08-08T09:48:02.848Z,23
2022-08-08T09:57:55.568Z,23.3
2022-08-08T10:07:50.915Z,23.6
2022-08-08T10:37:52.312Z,24
2022-08-08T10:47:53.640Z,24
2022-08-08T10:57:53.882Z,24.5
2022-08-08T11:27:55.209Z,24.1
2022-08-08T11:58:00.090Z,24.4
2022-08-08T12:07:57.555Z,24.4
2022-08-08T12:27:59.127Z,24.5
2022-08-08T12:48:05.162Z,25
2022-08-08T12:58:00.563Z,25
2022-08-08T13:08:02.466Z,25
2022-08-08T13:18:09.650Z,24.2
2022-08-08T13:38:05.312Z,24.8
2022-08-08T13:48:04.251Z,25.2
2022-08-08T14:08:06.380Z,25.1
2022-08-08T14:18:35.321Z,24.9
2022-08-08T14:28:06.446Z,25
2022-08-08T14:48:07.187Z,24.9
2022-08-08T14:58:11.504Z,24.9
2022-08-08T15:08:12.682Z,24.8
2022-08-08T15:18:10.644Z,24.6
2022-08-08T15:28:34.255Z,24.5
2022-08-08T15:38:13.481Z,24.5
2022-08-08T15:48:15.728Z,24.9
2022-08-08T15:58:11.942Z,25.2
2022-08-08T16:08:13.012Z,25.2
2022-08-08T16:18:13.567Z,24.9
2022-08-08T16:28:23.008Z,24.9
2022-08-08T16:38:16.364Z,24.6
2022-08-08T16:48:15.482Z,24.6
2022-08-08T16:58:17.590Z,24.6
2022-08-08T17:08:16.450Z,24.4
2022-08-08T17:18:17.107Z,24.3
2022-08-08T17:28:17.720Z,24.1
2022-08-08T17:38:18.804Z,24.1
2022-08-08T17:48:29.462Z,23.9
2022-08-08T17:58:19.678Z,23.8
2022-08-08T18:08:24.310Z,23.6
2022-08-08T18:18:28.116Z,23.5
2022-08-08T18:28:23.493Z,23.4
2022-08-08T18:48:22.892Z,23
2022-08-08T18:58:23.817Z,22.8
2022-08-08T19:08:28.621Z,22.6
2022-08-08T19:18:31.725Z,22.3
2022-08-08T19:28:26.316Z,22
2022-08-08T19:38:27.118Z,21.7
2022-08-08T19:58:28.088Z,21.1
2022-08-08T20:08:37.565Z,20.8
2022-08-08T20:18:29.560Z,20.5
2022-08-08T20:28:32.341Z,20.3
2022-08-08T20:38:32.494Z,20.1
2022-08-08T20:48:30.395Z,19.9
2022-08-08T20:58:31.386Z,19.7
2022-08-08T21:08:34.060Z,19.6
2022-08-08T21:18:31.887Z,19.4
2022-08-08T21:28:33.749Z,19.3
2022-08-08T21:38:33.016Z,19.2
2022-08-08T21:48:41.086Z,19.1
2022-08-08T21:58:37.315Z,19
2022-08-08T22:08:37.113Z,18.8
2022-08-08T22:18:35.524Z,18.7
2022-08-08T22:29:05.360Z,18.6
2022-08-08T22:38:37.025Z,18.4
2022-08-08T22:48:38.037Z,18.2
2022-08-08T22:58:38.440Z,18.1
2022-08-08T23:08:44.316Z,17.9
2022-08-08T23:18:40.149Z,17.8
2022-08-08T23:28:40.948Z,17.7
2022-08-08T23:38:44.781Z,17.6
2022-08-08T23:48:59.524Z,17.4
2022-08-08T23:58:43.289Z,17.2
